sensor_id;sensor_type;location;lat;lon;timestamp;pressure;altitude;pressure_sealevel;temperature;humidity
15529;BME280;7866;52.280;9.500;2023-02-04T00:02:19;101538.75;;;5.90;94.56
15529;BME280;7866;52.280;9.500;2023-02-04T00:07:20;101540.03;;;5.97;93.76
15529;BME280;7866;52.280;9.500;2023-02-04T00:12:23;101545.47;;;5.96;93.03
15529;BME280;7866;52.280;9.500;2023-02-04T00:17:25;101542.63;;;5.99;93.82
15529;BME280;7866;52.280;9.500;2023-02-04T00:22:26;101545.16;;;5.87;92.84
15529;BME280;7866;52.280;9.500;2023-02-04T00:27:29;101553.47;;;5.83;92.60
15529;BME280;7866;52.280;9.500;2023-02-04T00:32:31;101564.50;;;5.77;93.76
15529;BME280;7866;52.280;9.500;2023-02-04T00:37:33;101567.16;;;5.77;95.32
15529;BME280;7866;52.280;9.500;2023-02-04T00:42:36;101571.00;;;5.73;94.34
15529;BME280;7866;52.280;9.500;2023-02-04T00:47:37;101568.78;;;5.66;94.63
15529;BME280;7866;52.280;9.500;2023-02-04T00:52:39;101589.41;;;5.63;94.20
15529;BME280;7866;52.280;9.500;2023-02-04T00:57:42;101596.63;;;5.61;94.79
15529;BME280;7866;52.280;9.500;2023-02-04T01:02:46;101612.13;;;5.54;94.26
15529;BME280;7866;52.280;9.500;2023-02-04T01:07:47;101624.16;;;5.47;94.31
15529;BME280;7866;52.280;9.500;2023-02-04T01:12:50;101635.72;;;5.46;93.58
15529;BME280;7866;52.280;9.500;2023-02-04T01:17:52;101646.31;;;5.33;92.71
15529;BME280;7866;52.280;9.500;2023-02-04T01:22:54;101656.28;;;5.30;93.27
15529;BME280;7866;52.280;9.500;2023-02-04T01:27:57;101671.75;;;5.10;91.93
15529;BME280;7866;52.280;9.500;2023-02-04T01:32:58;101683.13;;;5.12;92.04
15529;BME280;7866;52.280;9.500;2023-02-04T01:38:00;101688.28;;;5.01;92.10
15529;BME280;7866;52.280;9.500;2023-02-04T01:43:03;101705.41;;;5.10;91.17
15529;BME280;7866;52.280;9.500;2023-02-04T01:48:06;101714.66;;;5.04;90.73
15529;BME280;7866;52.280;9.500;2023-02-04T01:53:08;101730.56;;;5.04;90.90
15529;BME280;7866;52.280;9.500;2023-02-04T01:58:11;101727.16;;;5.02;90.76
15529;BME280;7866;52.280;9.500;2023-02-04T02:03:13;101744.22;;;4.98;91.96
15529;BME280;7866;52.280;9.500;2023-02-04T02:08:15;101760.28;;;4.97;91.41
15529;BME280;7866;52.280;9.500;2023-02-04T02:13:19;101761.41;;;4.92;91.63
15529;BME280;7866;52.280;9.500;2023-02-04T02:18:21;101773.53;;;4.97;91.38
15529;BME280;7866;52.280;9.500;2023-02-04T02:23:41;101776.84;;;5.00;91.40
15529;BME280;7866;52.280;9.500;2023-02-04T02:28:45;101786.13;;;5.07;91.27
15529;BME280;7866;52.280;9.500;2023-02-04T02:33:48;101802.25;;;5.04;91.30
15529;BME280;7866;52.280;9.500;2023-02-04T02:38:51;101796.47;;;4.98;90.95
15529;BME280;7866;52.280;9.500;2023-02-04T02:43:52;101815.91;;;4.98;91.06
15529;BME280;7866;52.280;9.500;2023-02-04T02:48:54;101829.03;;;4.87;92.14
15529;BME280;7866;52.280;9.500;2023-02-04T02:53:57;101834.41;;;4.85;92.41
15529;BME280;7866;52.280;9.500;2023-02-04T02:59:11;101851.56;;;4.94;92.36
15529;BME280;7866;52.280;9.500;2023-02-04T03:04:14;101846.91;;;4.98;91.41
15529;BME280;7866;52.280;9.500;2023-02-04T03:09:19;101867.19;;;4.99;91.18
15529;BME280;7866;52.280;9.500;2023-02-04T03:14:22;101872.91;;;5.07;91.36
15529;BME280;7866;52.280;9.500;2023-02-04T03:19:25;101879.38;;;5.03;90.86
15529;BME280;7866;52.280;9.500;2023-02-04T03:24:29;101886.44;;;5.02;90.82
15529;BME280;7866;52.280;9.500;2023-02-04T03:29:31;101901.16;;;4.93;91.73
15529;BME280;7866;52.280;9.500;2023-02-04T03:34:33;101915.28;;;4.94;92.11
15529;BME280;7866;52.280;9.500;2023-02-04T03:39:35;101918.78;;;4.80;91.10
15529;BME280;7866;52.280;9.500;2023-02-04T03:44:37;101929.22;;;4.98;92.01
15529;BME280;7866;52.280;9.500;2023-02-04T03:49:39;101931.41;;;4.91;92.13
15529;BME280;7866;52.280;9.500;2023-02-04T03:54:42;101955.16;;;4.78;91.81
15529;BME280;7866;52.280;9.500;2023-02-04T03:59:43;101964.63;;;4.68;90.93
15529;BME280;7866;52.280;9.500;2023-02-04T04:04:45;101956.97;;;4.78;89.88
15529;BME280;7866;52.280;9.500;2023-02-04T04:09:48;101959.72;;;4.76;89.16
15529;BME280;7866;52.280;9.500;2023-02-04T04:14:50;101970.41;;;4.75;87.90
15529;BME280;7866;52.280;9.500;2023-02-04T04:19:51;101978.25;;;4.62;87.62
15529;BME280;7866;52.280;9.500;2023-02-04T04:24:54;101997.94;;;4.58;86.41
15529;BME280;7866;52.280;9.500;2023-02-04T04:29:56;102009.56;;;4.71;87.30
15529;BME280;7866;52.280;9.500;2023-02-04T04:34:58;102025.34;;;4.58;87.00
15529;BME280;7866;52.280;9.500;2023-02-04T04:40:01;102026.03;;;4.46;87.75
15529;BME280;7866;52.280;9.500;2023-02-04T04:45:04;102031.69;;;4.56;88.36
15529;BME280;7866;52.280;9.500;2023-02-04T04:50:07;102034.84;;;4.47;87.67
15529;BME280;7866;52.280;9.500;2023-02-04T04:55:10;102048.75;;;4.36;88.10
15529;BME280;7866;52.280;9.500;2023-02-04T05:00:15;102043.44;;;4.36;89.22
15529;BME280;7866;52.280;9.500;2023-02-04T05:05:17;102061.91;;;4.37;88.79
15529;BME280;7866;52.280;9.500;2023-02-04T05:10:20;102068.84;;;4.40;88.78
15529;BME280;7866;52.280;9.500;2023-02-04T05:15:22;102064.66;;;4.36;89.20
15529;BME280;7866;52.280;9.500;2023-02-04T05:20:23;102082.88;;;4.26;89.77
15529;BME280;7866;52.280;9.500;2023-02-04T05:25:27;102091.34;;;4.17;89.58
15529;BME280;7866;52.280;9.500;2023-02-04T05:30:29;102104.59;;;4.17;91.20
15529;BME280;7866;52.280;9.500;2023-02-04T05:35:30;102105.97;;;4.08;89.97
15529;BME280;7866;52.280;9.500;2023-02-04T05:40:33;102108.94;;;4.02;91.09
15529;BME280;7866;52.280;9.500;2023-02-04T05:45:35;102117.41;;;3.93;90.86
15529;BME280;7866;52.280;9.500;2023-02-04T05:50:36;102125.66;;;3.87;90.93
15529;BME280;7866;52.280;9.500;2023-02-04T05:55:39;102132.19;;;3.64;92.39
15529;BME280;7866;52.280;9.500;2023-02-04T06:00:41;102140.69;;;3.53;92.51
15529;BME280;7866;52.280;9.500;2023-02-04T06:05:43;102139.53;;;3.41;92.34
15529;BME280;7866;52.280;9.500;2023-02-04T06:10:46;102146.56;;;3.25;92.32
15529;BME280;7866;52.280;9.500;2023-02-04T06:15:47;102156.91;;;3.12;92.78
15529;BME280;7866;52.280;9.500;2023-02-04T06:20:49;102156.44;;;3.04;93.07
15529;BME280;7866;52.280;9.500;2023-02-04T06:25:52;102169.94;;;2.98;93.43
15529;BME280;7866;52.280;9.500;2023-02-04T06:30:54;102187.22;;;2.88;93.58
15529;BME280;7866;52.280;9.500;2023-02-04T06:35:56;102186.69;;;2.99;94.22
15529;BME280;7866;52.280;9.500;2023-02-04T06:40:59;102183.25;;;2.96;94.24
15529;BME280;7866;52.280;9.500;2023-02-04T06:46:00;102203.72;;;2.93;94.00
15529;BME280;7866;52.280;9.500;2023-02-04T06:51:02;102208.03;;;2.95;94.08
15529;BME280;7866;52.280;9.500;2023-02-04T06:56:05;102222.16;;;2.94;94.44
15529;BME280;7866;52.280;9.500;2023-02-04T07:01:07;102242.13;;;3.02;94.50
15529;BME280;7866;52.280;9.500;2023-02-04T07:06:09;102244.31;;;3.11;94.53
15529;BME280;7866;52.280;9.500;2023-02-04T07:11:12;102246.34;;;3.06;94.11
15529;BME280;7866;52.280;9.500;2023-02-04T07:16:13;102242.16;;;3.19;93.70
15529;BME280;7866;52.280;9.500;2023-02-04T07:21:15;102261.72;;;3.16;93.76
15529;BME280;7866;52.280;9.500;2023-02-04T07:26:18;102273.06;;;3.18;93.60
15529;BME280;7866;52.280;9.500;2023-02-04T07:31:20;102270.38;;;3.20;93.30
15529;BME280;7866;52.280;9.500;2023-02-04T07:36:22;102278.66;;;3.12;93.87
15529;BME280;7866;52.280;9.500;2023-02-04T07:41:25;102290.97;;;3.13;93.19
15529;BME280;7866;52.280;9.500;2023-02-04T07:46:27;102287.47;;;2.94;92.92
15529;BME280;7866;52.280;9.500;2023-02-04T07:51:28;102301.56;;;2.94;92.97
15529;BME280;7866;52.280;9.500;2023-02-04T07:56:31;102304.41;;;2.90;93.14
15529;BME280;7866;52.280;9.500;2023-02-04T08:01:33;102321.22;;;2.89;93.15
15529;BME280;7866;52.280;9.500;2023-02-04T08:06:35;102324.31;;;2.80;92.75
15529;BME280;7866;52.280;9.500;2023-02-04T08:11:38;102333.25;;;2.77;93.49
15529;BME280;7866;52.280;9.500;2023-02-04T08:16:39;102331.38;;;2.79;93.01
15529;BME280;7866;52.280;9.500;2023-02-04T08:21:41;102328.66;;;2.81;93.81
15529;BME280;7866;52.280;9.500;2023-02-04T08:26:44;102321.16;;;2.90;93.08
15529;BME280;7866;52.280;9.500;2023-02-04T08:31:46;102326.59;;;3.06;93.40
15529;BME280;7866;52.280;9.500;2023-02-04T08:36:48;102334.31;;;3.30;93.38
15529;BME280;7866;52.280;9.500;2023-02-04T08:41:51;102330.00;;;3.46;93.13
15529;BME280;7866;52.280;9.500;2023-02-04T08:46:52;102347.16;;;3.56;92.87
15529;BME280;7866;52.280;9.500;2023-02-04T08:51:54;102354.00;;;3.79;91.17
15529;BME280;7866;52.280;9.500;2023-02-04T08:56:57;102358.41;;;3.79;89.99
15529;BME280;7866;52.280;9.500;2023-02-04T09:01:58;102364.50;;;3.81;89.26
15529;BME280;7866;52.280;9.500;2023-02-04T09:07:00;102371.53;;;3.82;88.81
15529;BME280;7866;52.280;9.500;2023-02-04T09:12:03;102368.41;;;3.91;88.11
15529;BME280;7866;52.280;9.500;2023-02-04T09:17:05;102380.63;;;4.12;85.88
15529;BME280;7866;52.280;9.500;2023-02-04T09:22:07;102385.06;;;4.29;85.44
15529;BME280;7866;52.280;9.500;2023-02-04T09:27:10;102388.00;;;4.58;83.99
15529;BME280;7866;52.280;9.500;2023-02-04T09:32:11;102393.69;;;4.50;82.56
15529;BME280;7866;52.280;9.500;2023-02-04T09:37:13;102395.34;;;4.18;80.64
15529;BME280;7866;52.280;9.500;2023-02-04T09:42:16;102405.81;;;4.21;80.12
15529;BME280;7866;52.280;9.500;2023-02-04T09:47:20;102415.19;;;4.28;79.74
15529;BME280;7866;52.280;9.500;2023-02-04T09:52:22;102413.03;;;4.35;81.02
15529;BME280;7866;52.280;9.500;2023-02-04T09:57:26;102418.06;;;4.24;80.18
15529;BME280;7866;52.280;9.500;2023-02-04T10:02:29;102435.69;;;4.42;80.70
15529;BME280;7866;52.280;9.500;2023-02-04T10:07:31;102441.06;;;4.40;79.06
15529;BME280;7866;52.280;9.500;2023-02-04T10:12:34;102454.34;;;4.40;79.25
15529;BME280;7866;52.280;9.500;2023-02-04T10:17:36;102445.13;;;4.65;79.65
15529;BME280;7866;52.280;9.500;2023-02-04T10:22:38;102468.28;;;4.79;80.05
15529;BME280;7866;52.280;9.500;2023-02-04T10:27:49;102453.94;;;4.83;78.87
15529;BME280;7866;52.280;9.500;2023-02-04T10:32:51;102454.63;;;4.86;78.93
15529;BME280;7866;52.280;9.500;2023-02-04T10:38:02;102447.69;;;4.66;79.21
15529;BME280;7866;52.280;9.500;2023-02-04T10:43:12;102450.41;;;4.82;79.22
15529;BME280;7866;52.280;9.500;2023-02-04T10:48:16;102464.72;;;4.62;77.60
15529;BME280;7866;52.280;9.500;2023-02-04T10:53:19;102462.31;;;4.75;78.41
15529;BME280;7866;52.280;9.500;2023-02-04T10:58:40;102470.03;;;4.80;77.67
15529;BME280;7866;52.280;9.500;2023-02-04T11:03:42;102460.69;;;4.55;77.23
15529;BME280;7866;52.280;9.500;2023-02-04T11:08:44;102467.75;;;4.55;77.06
15529;BME280;7866;52.280;9.500;2023-02-04T11:13:58;102468.69;;;4.54;77.43
15529;BME280;7866;52.280;9.500;2023-02-04T11:19:03;102470.25;;;4.58;77.85
15529;BME280;7866;52.280;9.500;2023-02-04T11:24:21;102471.44;;;4.52;76.72
15529;BME280;7866;52.280;9.500;2023-02-04T11:29:28;102471.25;;;4.90;76.21
15529;BME280;7866;52.280;9.500;2023-02-04T11:34:46;102471.84;;;5.12;76.33
15529;BME280;7866;52.280;9.500;2023-02-04T11:39:49;102472.75;;;4.78;75.77
15529;BME280;7866;52.280;9.500;2023-02-04T11:44:53;102469.09;;;4.81;75.90
15529;BME280;7866;52.280;9.500;2023-02-04T11:49:57;102480.19;;;4.72;76.75
15529;BME280;7866;52.280;9.500;2023-02-04T11:55:02;102485.44;;;5.06;76.23
15529;BME280;7866;52.280;9.500;2023-02-04T12:00:11;102478.09;;;5.44;73.63
15529;BME280;7866;52.280;9.500;2023-02-04T12:05:15;102482.19;;;5.01;73.09
15529;BME280;7866;52.280;9.500;2023-02-04T12:10:26;102493.59;;;5.03;75.24
15529;BME280;7866;52.280;9.500;2023-02-04T12:15:35;102495.03;;;5.42;74.23
15529;BME280;7866;52.280;9.500;2023-02-04T12:20:36;102490.44;;;5.61;72.59
15529;BME280;7866;52.280;9.500;2023-02-04T12:25:38;102485.97;;;5.46;73.95
15529;BME280;7866;52.280;9.500;2023-02-04T12:30:41;102488.09;;;5.24;73.87
15529;BME280;7866;52.280;9.500;2023-02-04T12:35:43;102488.00;;;5.25;74.47
15529;BME280;7866;52.280;9.500;2023-02-04T12:40:45;102493.94;;;5.13;75.45
15529;BME280;7866;52.280;9.500;2023-02-04T12:45:48;102505.03;;;5.21;75.76
15529;BME280;7866;52.280;9.500;2023-02-04T12:50:49;102505.97;;;5.53;73.92
15529;BME280;7866;52.280;9.500;2023-02-04T12:55:51;102505.00;;;5.54;73.30
15529;BME280;7866;52.280;9.500;2023-02-04T13:00:54;102496.03;;;5.57;74.26
15529;BME280;7866;52.280;9.500;2023-02-04T13:05:55;102503.88;;;5.27;73.72
15529;BME280;7866;52.280;9.500;2023-02-04T13:10:57;102512.31;;;5.51;73.69
15529;BME280;7866;52.280;9.500;2023-02-04T13:16:00;102506.97;;;6.00;73.79
15529;BME280;7866;52.280;9.500;2023-02-04T13:21:02;102519.09;;;5.56;73.93
15529;BME280;7866;52.280;9.500;2023-02-04T13:26:04;102523.31;;;5.27;74.61
15529;BME280;7866;52.280;9.500;2023-02-04T13:31:08;102527.28;;;5.36;74.67
15529;BME280;7866;52.280;9.500;2023-02-04T13:36:10;102523.31;;;5.27;75.01
15529;BME280;7866;52.280;9.500;2023-02-04T13:41:11;102513.19;;;5.34;75.04
15529;BME280;7866;52.280;9.500;2023-02-04T13:46:14;102514.66;;;5.24;74.05
15529;BME280;7866;52.280;9.500;2023-02-04T13:51:16;102511.34;;;5.18;74.68
15529;BME280;7866;52.280;9.500;2023-02-04T13:56:17;102512.63;;;5.11;74.83
15529;BME280;7866;52.280;9.500;2023-02-04T14:01:20;102509.97;;;5.11;74.02
15529;BME280;7866;52.280;9.500;2023-02-04T14:06:22;102504.97;;;5.23;75.22
15529;BME280;7866;52.280;9.500;2023-02-04T14:11:32;102503.38;;;5.18;77.67
15529;BME280;7866;52.280;9.500;2023-02-04T14:16:35;102506.09;;;5.34;78.41
15529;BME280;7866;52.280;9.500;2023-02-04T14:21:37;102505.63;;;5.26;78.30
15529;BME280;7866;52.280;9.500;2023-02-04T14:26:38;102511.25;;;5.37;78.17
15529;BME280;7866;52.280;9.500;2023-02-04T14:31:41;102517.53;;;5.52;78.02
15529;BME280;7866;52.280;9.500;2023-02-04T14:36:43;102521.31;;;5.48;77.56
15529;BME280;7866;52.280;9.500;2023-02-04T14:41:44;102529.34;;;5.31;75.33
15529;BME280;7866;52.280;9.500;2023-02-04T14:46:48;102524.38;;;5.40;76.88
15529;BME280;7866;52.280;9.500;2023-02-04T14:51:50;102522.31;;;5.46;76.94
15529;BME280;7866;52.280;9.500;2023-02-04T14:56:52;102520.28;;;5.51;76.41
15529;BME280;7866;52.280;9.500;2023-02-04T15:01:55;102522.16;;;5.49;76.37
15529;BME280;7866;52.280;9.500;2023-02-04T15:06:56;102522.22;;;5.31;77.61
15529;BME280;7866;52.280;9.500;2023-02-04T15:11:58;102513.84;;;5.22;77.26
15529;BME280;7866;52.280;9.500;2023-02-04T15:17:01;102527.78;;;5.27;76.60
15529;BME280;7866;52.280;9.500;2023-02-04T15:22:03;102524.41;;;5.06;77.52
15529;BME280;7866;52.280;9.500;2023-02-04T15:27:05;102521.25;;;4.99;78.79
15529;BME280;7866;52.280;9.500;2023-02-04T15:32:08;102531.00;;;4.81;80.58
15529;BME280;7866;52.280;9.500;2023-02-04T15:37:10;102522.31;;;4.60;81.21
15529;BME280;7866;52.280;9.500;2023-02-04T15:42:11;102516.41;;;4.55;81.69
15529;BME280;7866;52.280;9.500;2023-02-04T15:47:15;102526.53;;;4.47;83.11
15529;BME280;7866;52.280;9.500;2023-02-04T15:52:16;102519.81;;;4.40;84.21
15529;BME280;7866;52.280;9.500;2023-02-04T15:57:18;102532.72;;;4.29;84.30
15529;BME280;7866;52.280;9.500;2023-02-04T16:02:21;102530.75;;;4.15;85.05
15529;BME280;7866;52.280;9.500;2023-02-04T16:07:22;102529.25;;;3.90;85.12
15529;BME280;7866;52.280;9.500;2023-02-04T16:12:24;102543.34;;;3.91;86.22
15529;BME280;7866;52.280;9.500;2023-02-04T16:17:27;102543.00;;;3.80;87.19
15529;BME280;7866;52.280;9.500;2023-02-04T16:22:29;102551.09;;;3.77;86.66
15529;BME280;7866;52.280;9.500;2023-02-04T16:27:31;102555.47;;;3.78;87.57
15529;BME280;7866;52.280;9.500;2023-02-04T16:32:34;102547.09;;;3.68;87.08
15529;BME280;7866;52.280;9.500;2023-02-04T16:37:36;102552.75;;;3.60;86.98
15529;BME280;7866;52.280;9.500;2023-02-04T16:42:38;102556.84;;;3.47;87.84
15529;BME280;7866;52.280;9.500;2023-02-04T16:47:41;102550.66;;;3.48;87.99
15529;BME280;7866;52.280;9.500;2023-02-04T16:52:42;102551.75;;;3.42;88.31
15529;BME280;7866;52.280;9.500;2023-02-04T16:57:44;102561.09;;;3.31;88.06
15529;BME280;7866;52.280;9.500;2023-02-04T17:02:47;102566.41;;;3.31;88.23
15529;BME280;7866;52.280;9.500;2023-02-04T17:07:48;102562.97;;;3.29;88.74
15529;BME280;7866;52.280;9.500;2023-02-04T17:12:50;102569.22;;;3.28;88.49
15529;BME280;7866;52.280;9.500;2023-02-04T17:17:53;102573.03;;;3.20;88.53
15529;BME280;7866;52.280;9.500;2023-02-04T17:22:55;102570.66;;;3.14;88.97
15529;BME280;7866;52.280;9.500;2023-02-04T17:27:56;102573.03;;;3.00;88.81
15529;BME280;7866;52.280;9.500;2023-02-04T17:32:59;102578.25;;;3.02;88.51
15529;BME280;7866;52.280;9.500;2023-02-04T17:38:01;102581.03;;;2.99;88.10
15529;BME280;7866;52.280;9.500;2023-02-04T17:43:03;102586.25;;;2.80;88.97
15529;BME280;7866;52.280;9.500;2023-02-04T17:48:08;102589.03;;;2.77;88.87
15529;BME280;7866;52.280;9.500;2023-02-04T17:53:10;102590.19;;;2.69;88.62
15529;BME280;7866;52.280;9.500;2023-02-04T17:58:13;102585.28;;;2.60;88.35
15529;BME280;7866;52.280;9.500;2023-02-04T18:03:18;102572.09;;;2.59;89.43
15529;BME280;7866;52.280;9.500;2023-02-04T18:08:21;102575.06;;;2.51;88.95
15529;BME280;7866;52.280;9.500;2023-02-04T18:13:29;102576.09;;;2.47;89.39
15529;BME280;7866;52.280;9.500;2023-02-04T18:18:35;102577.22;;;2.41;89.03
15529;BME280;7866;52.280;9.500;2023-02-04T18:23:37;102573.16;;;2.33;88.79
15529;BME280;7866;52.280;9.500;2023-02-04T18:28:39;102579.81;;;2.21;88.44
15529;BME280;7866;52.280;9.500;2023-02-04T18:33:45;102585.28;;;2.16;89.30
15529;BME280;7866;52.280;9.500;2023-02-04T18:38:48;102579.25;;;2.13;89.19
15529;BME280;7866;52.280;9.500;2023-02-04T18:43:56;102577.28;;;2.18;89.25
15529;BME280;7866;52.280;9.500;2023-02-04T18:49:05;102579.16;;;2.14;89.52
15529;BME280;7866;52.280;9.500;2023-02-04T18:54:37;102593.13;;;2.18;88.82
15529;BME280;7866;52.280;9.500;2023-02-04T18:59:39;102594.38;;;2.31;89.22
15529;BME280;7866;52.280;9.500;2023-02-04T19:04:43;102596.97;;;2.33;89.10
15529;BME280;7866;52.280;9.500;2023-02-04T19:09:45;102592.16;;;2.42;89.33
15529;BME280;7866;52.280;9.500;2023-02-04T19:14:47;102591.00;;;2.50;89.61
15529;BME280;7866;52.280;9.500;2023-02-04T19:19:55;102598.75;;;2.54;89.23
15529;BME280;7866;52.280;9.500;2023-02-04T19:24:59;102607.69;;;2.52;88.61
15529;BME280;7866;52.280;9.500;2023-02-04T19:30:38;102612.53;;;2.62;88.87
15529;BME280;7866;52.280;9.500;2023-02-04T19:35:42;102621.28;;;2.64;88.77
15529;BME280;7866;52.280;9.500;2023-02-04T19:40:47;102634.41;;;2.66;88.68
15529;BME280;7866;52.280;9.500;2023-02-04T19:45:52;102618.63;;;2.64;88.39
15529;BME280;7866;52.280;9.500;2023-02-04T19:50:56;102624.84;;;2.63;88.50
15529;BME280;7866;52.280;9.500;2023-02-04T19:55:57;102612.53;;;2.62;88.22
15529;BME280;7866;52.280;9.500;2023-02-04T20:01:00;102615.88;;;2.67;88.60
15529;BME280;7866;52.280;9.500;2023-02-04T20:06:27;102610.63;;;2.66;87.92
15529;BME280;7866;52.280;9.500;2023-02-04T20:11:53;102619.47;;;2.65;88.31
15529;BME280;7866;52.280;9.500;2023-02-04T20:16:57;102615.13;;;2.64;88.15
15529;BME280;7866;52.280;9.500;2023-02-04T20:22:23;102608.81;;;2.66;88.37
15529;BME280;7866;52.280;9.500;2023-02-04T20:27:34;102599.09;;;2.67;88.36
15529;BME280;7866;52.280;9.500;2023-02-04T20:32:38;102599.28;;;2.62;88.88
15529;BME280;7866;52.280;9.500;2023-02-04T20:37:42;102599.19;;;2.65;88.88
15529;BME280;7866;52.280;9.500;2023-02-04T20:42:44;102614.38;;;2.60;88.51
15529;BME280;7866;52.280;9.500;2023-02-04T20:47:48;102608.22;;;2.60;88.98
15529;BME280;7866;52.280;9.500;2023-02-04T20:53:18;102596.53;;;2.65;89.38
15529;BME280;7866;52.280;9.500;2023-02-04T20:58:22;102592.28;;;2.61;89.41
15529;BME280;7866;52.280;9.500;2023-02-04T21:03:27;102582.53;;;2.63;89.51
15529;BME280;7866;52.280;9.500;2023-02-04T21:08:36;102562.34;;;2.61;89.25
15529;BME280;7866;52.280;9.500;2023-02-04T21:13:40;102565.28;;;2.53;89.19
15529;BME280;7866;52.280;9.500;2023-02-04T21:18:42;102552.84;;;2.55;89.39
15529;BME280;7866;52.280;9.500;2023-02-04T21:23:49;102560.22;;;2.47;88.90
15529;BME280;7866;52.280;9.500;2023-02-04T21:28:51;102553.50;;;2.40;88.74
15529;BME280;7866;52.280;9.500;2023-02-04T21:33:52;102547.16;;;2.22;88.69
15529;BME280;7866;52.280;9.500;2023-02-04T21:38:56;102551.88;;;2.14;89.49
15529;BME280;7866;52.280;9.500;2023-02-04T21:43:58;102559.44;;;2.01;89.18
15529;BME280;7866;52.280;9.500;2023-02-04T21:48:59;102554.72;;;1.86;89.58
15529;BME280;7866;52.280;9.500;2023-02-04T21:54:04;102554.06;;;1.81;89.96
15529;BME280;7866;52.280;9.500;2023-02-04T21:59:06;102552.72;;;1.69;90.06
15529;BME280;7866;52.280;9.500;2023-02-04T22:04:07;102551.41;;;1.57;89.91
15529;BME280;7866;52.280;9.500;2023-02-04T22:09:10;102551.00;;;1.44;89.54
15529;BME280;7866;52.280;9.500;2023-02-04T22:14:12;102550.13;;;1.44;90.46
15529;BME280;7866;52.280;9.500;2023-02-04T22:19:31;102550.88;;;1.47;90.59
15529;BME280;7866;52.280;9.500;2023-02-04T22:24:34;102542.59;;;1.33;90.21
15529;BME280;7866;52.280;9.500;2023-02-04T22:29:36;102556.81;;;1.29;90.59
15529;BME280;7866;52.280;9.500;2023-02-04T22:34:37;102546.44;;;1.25;90.68
15529;BME280;7866;52.280;9.500;2023-02-04T22:39:41;102539.41;;;1.23;91.10
15529;BME280;7866;52.280;9.500;2023-02-04T22:44:42;102542.19;;;1.20;91.01
15529;BME280;7866;52.280;9.500;2023-02-04T22:49:44;102532.09;;;1.07;90.48
15529;BME280;7866;52.280;9.500;2023-02-04T22:54:47;102540.94;;;1.06;90.69
15529;BME280;7866;52.280;9.500;2023-02-04T22:59:48;102554.06;;;1.07;91.28
15529;BME280;7866;52.280;9.500;2023-02-04T23:04:50;102551.56;;;1.04;91.30
15529;BME280;7866;52.280;9.500;2023-02-04T23:09:53;102543.16;;;0.93;90.55
15529;BME280;7866;52.280;9.500;2023-02-04T23:14:55;102546.53;;;0.96;90.67
15529;BME280;7866;52.280;9.500;2023-02-04T23:19:56;102541.53;;;0.89;91.15
15529;BME280;7866;52.280;9.500;2023-02-04T23:24:59;102540.00;;;0.82;90.63
15529;BME280;7866;52.280;9.500;2023-02-04T23:30:01;102556.53;;;0.87;90.94
15529;BME280;7866;52.280;9.500;2023-02-04T23:35:05;102553.59;;;0.96;91.08
15529;BME280;7866;52.280;9.500;2023-02-04T23:40:09;102549.69;;;0.81;90.11
15529;BME280;7866;52.280;9.500;2023-02-04T23:45:11;102552.78;;;0.67;90.39
15529;BME280;7866;52.280;9.500;2023-02-04T23:50:12;102544.84;;;0.69;90.95
15529;BME280;7866;52.280;9.500;2023-02-04T23:55:16;102537.94;;;0.65;90.38
